sensor_id;sensor_type;location;lat;lon;timestamp;pressure;altitude;pressure_sealevel;temperature;humidity
44751;BME280;30477;48.224;11.470;2023-06-10T19:43:54;95873.22;;;20.31;56.19
44751;BME280;30477;48.224;11.470;2023-06-10T19:46:19;95865.94;;;20.20;56.53
44751;BME280;30477;48.224;11.470;2023-06-10T19:48:48;95864.72;;;20.16;56.72
44751;BME280;30477;48.224;11.470;2023-06-10T19:51:15;95871.81;;;20.15;56.79
44751;BME280;30477;48.224;11.470;2023-06-10T19:53:43;95870.44;;;20.06;57.33
44751;BME280;30477;48.224;11.470;2023-06-10T19:56:08;95869.59;;;19.99;57.73
44751;BME280;30477;48.224;11.470;2023-06-10T19:58:34;95877.69;;;19.91;58.02
44751;BME280;30477;48.224;11.470;2023-06-10T20:00:59;95880.13;;;19.85;58.38
44751;BME280;30477;48.224;11.470;2023-06-10T20:03:24;95883.38;;;19.81;59.21
44751;BME280;30477;48.224;11.470;2023-06-10T20:05:50;95882.97;;;19.77;59.32
44751;BME280;30477;48.224;11.470;2023-06-10T20:08:15;95882.97;;;19.71;59.95
44751;BME280;30477;48.224;11.470;2023-06-10T20:10:41;95891.41;;;19.66;60.04
44751;BME280;30477;48.224;11.470;2023-06-10T20:13:06;95883.72;;;19.58;60.52
44751;BME280;30477;48.224;11.470;2023-06-10T20:15:32;95893.41;;;19.51;61.04
44751;BME280;30477;48.224;11.470;2023-06-10T20:17:57;95888.97;;;19.44;61.35
44751;BME280;30477;48.224;11.470;2023-06-10T20:20:23;95889.34;;;19.41;61.51
44751;BME280;30477;48.224;11.470;2023-06-10T20:22:48;95891.38;;;19.46;61.58
44751;BME280;30477;48.224;11.470;2023-06-10T20:25:13;95893.19;;;19.45;61.25
44751;BME280;30477;48.224;11.470;2023-06-10T20:27:39;95908.34;;;19.43;61.53
44751;BME280;30477;48.224;11.470;2023-06-10T20:30:05;95892.41;;;19.45;61.91
44751;BME280;30477;48.224;11.470;2023-06-10T20:32:30;95898.63;;;19.37;61.66
44751;BME280;30477;48.224;11.470;2023-06-10T20:34:56;95903.28;;;19.35;62.13
44751;BME280;30477;48.224;11.470;2023-06-10T20:37:21;95897.41;;;19.26;62.05
44751;BME280;30477;48.224;11.470;2023-06-10T20:39:46;95904.84;;;19.23;62.30
44751;BME280;30477;48.224;11.470;2023-06-10T20:42:12;95903.88;;;19.24;61.94
44751;BME280;30477;48.224;11.470;2023-06-10T20:44:40;95901.00;;;19.19;62.21
44751;BME280;30477;48.224;11.470;2023-06-10T20:47:05;95903.63;;;19.19;62.08
44751;BME280;30477;48.224;11.470;2023-06-10T20:49:31;95906.88;;;19.21;61.67
44751;BME280;30477;48.224;11.470;2023-06-10T20:51:56;95905.88;;;19.15;61.66
44751;BME280;30477;48.224;11.470;2023-06-10T20:54:21;95905.66;;;19.17;61.70
44751;BME280;30477;48.224;11.470;2023-06-10T20:56:47;95911.13;;;19.15;61.58
44751;BME280;30477;48.224;11.470;2023-06-10T20:59:14;95910.31;;;19.21;61.53
44751;BME280;30477;48.224;11.470;2023-06-10T21:01:39;95912.72;;;19.23;61.33
44751;BME280;30477;48.224;11.470;2023-06-10T21:04:06;95912.28;;;19.13;61.30
44751;BME280;30477;48.224;11.470;2023-06-10T21:06:32;95906.25;;;19.12;61.33
44751;BME280;30477;48.224;11.470;2023-06-10T21:08:57;95911.06;;;19.09;61.55
44751;BME280;30477;48.224;11.470;2023-06-10T21:11:22;95913.06;;;19.06;61.48
44751;BME280;30477;48.224;11.470;2023-06-10T21:13:48;95915.31;;;19.03;61.78
44751;BME280;30477;48.224;11.470;2023-06-10T21:16:13;95917.31;;;18.94;62.01
44751;BME280;30477;48.224;11.470;2023-06-10T21:18:39;95920.28;;;18.91;62.19
44751;BME280;30477;48.224;11.470;2023-06-10T21:21:04;95924.50;;;18.85;62.19
44751;BME280;30477;48.224;11.470;2023-06-10T21:23:30;95925.47;;;18.78;62.13
44751;BME280;30477;48.224;11.470;2023-06-10T21:25:55;95929.06;;;18.77;62.23
44751;BME280;30477;48.224;11.470;2023-06-10T21:28:20;95924.00;;;18.69;62.92
44751;BME280;30477;48.224;11.470;2023-06-10T21:30:46;95917.75;;;18.70;62.54
44751;BME280;30477;48.224;11.470;2023-06-10T21:33:11;95925.00;;;18.67;62.82
44751;BME280;30477;48.224;11.470;2023-06-10T21:35:36;95920.13;;;18.64;63.25
44751;BME280;30477;48.224;11.470;2023-06-10T21:38:02;95914.53;;;18.67;62.89
44751;BME280;30477;48.224;11.470;2023-06-10T21:40:27;95914.72;;;18.73;63.16
44751;BME280;30477;48.224;11.470;2023-06-10T21:42:52;95916.75;;;18.71;63.00
44751;BME280;30477;48.224;11.470;2023-06-10T21:45:18;95918.53;;;18.63;63.26
44751;BME280;30477;48.224;11.470;2023-06-10T21:47:43;95921.31;;;18.55;63.24
44751;BME280;30477;48.224;11.470;2023-06-10T21:50:09;95922.50;;;18.53;63.72
44751;BME280;30477;48.224;11.470;2023-06-10T21:52:34;95920.66;;;18.46;63.72
44751;BME280;30477;48.224;11.470;2023-06-10T21:55:00;95929.28;;;18.40;64.05
44751;BME280;30477;48.224;11.470;2023-06-10T21:57:25;95920.81;;;18.38;63.98
44751;BME280;30477;48.224;11.470;2023-06-10T21:59:50;95926.00;;;18.32;64.43
44751;BME280;30477;48.224;11.470;2023-06-10T22:02:16;95929.22;;;18.27;64.39
44751;BME280;30477;48.224;11.470;2023-06-10T22:04:42;95926.78;;;18.25;64.68
44751;BME280;30477;48.224;11.470;2023-06-10T22:07:08;95922.28;;;18.19;64.55
44751;BME280;30477;48.224;11.470;2023-06-10T22:09:33;95924.47;;;18.16;65.18
44751;BME280;30477;48.224;11.470;2023-06-10T22:12:00;95924.69;;;18.14;65.30
44751;BME280;30477;48.224;11.470;2023-06-10T22:14:25;95934.91;;;18.09;65.20
44751;BME280;30477;48.224;11.470;2023-06-10T22:16:50;95933.94;;;18.10;65.61
44751;BME280;30477;48.224;11.470;2023-06-10T22:19:16;95922.66;;;18.16;65.49
44751;BME280;30477;48.224;11.470;2023-06-10T22:21:41;95937.16;;;18.12;65.50
44751;BME280;30477;48.224;11.470;2023-06-10T22:24:07;95931.09;;;18.12;65.34
44751;BME280;30477;48.224;11.470;2023-06-10T22:26:33;95924.06;;;18.12;65.57
44751;BME280;30477;48.224;11.470;2023-06-10T22:28:58;95920.25;;;18.15;65.15
44751;BME280;30477;48.224;11.470;2023-06-10T22:31:24;95916.56;;;18.09;65.43
44751;BME280;30477;48.224;11.470;2023-06-10T22:33:52;95918.97;;;18.04;65.52
44751;BME280;30477;48.224;11.470;2023-06-10T22:36:17;95926.56;;;17.99;65.44
44751;BME280;30477;48.224;11.470;2023-06-10T22:38:42;95920.97;;;18.02;65.50
44751;BME280;30477;48.224;11.470;2023-06-10T22:41:08;95916.28;;;17.97;65.63
44751;BME280;30477;48.224;11.470;2023-06-10T22:43:33;95921.72;;;17.96;65.73
44751;BME280;30477;48.224;11.470;2023-06-10T22:45:58;95919.41;;;17.86;65.96
44751;BME280;30477;48.224;11.470;2023-06-10T22:48:24;95920.22;;;17.87;66.06
44751;BME280;30477;48.224;11.470;2023-06-10T22:50:49;95925.19;;;17.81;66.19
44751;BME280;30477;48.224;11.470;2023-06-10T22:53:15;95922.09;;;17.71;65.99
44751;BME280;30477;48.224;11.470;2023-06-10T22:55:40;95917.03;;;17.70;66.28
44751;BME280;30477;48.224;11.470;2023-06-10T22:58:06;95919.78;;;17.61;66.38
44751;BME280;30477;48.224;11.470;2023-06-10T23:00:32;95916.75;;;17.58;66.50
44751;BME280;30477;48.224;11.470;2023-06-10T23:02:57;95917.38;;;17.60;66.42
44751;BME280;30477;48.224;11.470;2023-06-10T23:05:22;95922.22;;;17.63;66.73
44751;BME280;30477;48.224;11.470;2023-06-10T23:07:48;95915.78;;;17.65;66.62
44751;BME280;30477;48.224;11.470;2023-06-10T23:10:13;95914.75;;;17.60;66.35
44751;BME280;30477;48.224;11.470;2023-06-10T23:12:38;95920.97;;;17.59;66.34
44751;BME280;30477;48.224;11.470;2023-06-10T23:15:04;95927.13;;;17.51;66.63
44751;BME280;30477;48.224;11.470;2023-06-10T23:17:30;95932.69;;;17.41;66.80
44751;BME280;30477;48.224;11.470;2023-06-10T23:19:56;95925.81;;;17.40;66.92
44751;BME280;30477;48.224;11.470;2023-06-10T23:22:26;95929.25;;;17.41;66.99
44751;BME280;30477;48.224;11.470;2023-06-10T23:24:56;95928.81;;;17.37;67.09
44751;BME280;30477;48.224;11.470;2023-06-10T23:27:22;95924.38;;;17.38;66.99
44751;BME280;30477;48.224;11.470;2023-06-10T23:29:47;95925.19;;;17.38;66.81
44751;BME280;30477;48.224;11.470;2023-06-10T23:32:13;95932.28;;;17.44;67.13
44751;BME280;30477;48.224;11.470;2023-06-10T23:34:38;95935.28;;;17.41;66.99
44751;BME280;30477;48.224;11.470;2023-06-10T23:37:04;95935.97;;;17.29;67.27
44751;BME280;30477;48.224;11.470;2023-06-10T23:39:29;95931.16;;;17.32;67.13
44751;BME280;30477;48.224;11.470;2023-06-10T23:41:55;95935.13;;;17.28;67.27
44751;BME280;30477;48.224;11.470;2023-06-10T23:44:20;95935.53;;;17.25;67.23
44751;BME280;30477;48.224;11.470;2023-06-10T23:46:45;95941.38;;;17.27;67.19
44751;BME280;30477;48.224;11.470;2023-06-10T23:49:11;95941.13;;;17.22;67.41
44751;BME280;30477;48.224;11.470;2023-06-10T23:51:36;95935.53;;;17.25;67.59
44751;BME280;30477;48.224;11.470;2023-06-10T23:54:02;95940.50;;;17.20;67.69
44751;BME280;30477;48.224;11.470;2023-06-10T23:56:28;95934.75;;;17.10;67.77
44751;BME280;30477;48.224;11.470;2023-06-10T23:58:54;95933.22;;;17.00;67.79
